sensor_id;sensor_type;location;lat;lon;timestamp;pressure;altitude;pressure_sealevel;temperature;humidity
65880;BME280;52661;51.364;6.054;2023-04-25T00:00:17;100673.31;;;7.08;100.00
65880;BME280;52661;51.364;6.054;2023-04-25T00:02:43;100675.63;;;7.09;100.00
65880;BME280;52661;51.364;6.054;2023-04-25T00:05:08;100678.34;;;7.09;100.00
65880;BME280;52661;51.364;6.054;2023-04-25T00:07:34;100669.84;;;7.07;100.00
65880;BME280;52661;51.364;6.054;2023-04-25T00:10:00;100676.38;;;7.06;100.00
65880;BME280;52661;51.364;6.054;2023-04-25T00:12:25;100673.53;;;6.96;100.00
65880;BME280;52661;51.364;6.054;2023-04-25T00:14:53;100676.31;;;7.03;100.00
65880;BME280;52661;51.364;6.054;2023-04-25T00:17:19;100678.69;;;7.04;100.00
65880;BME280;52661;51.364;6.054;2023-04-25T00:19:44;100683.00;;;7.09;100.00
65880;BME280;52661;51.364;6.054;2023-04-25T00:22:11;100681.03;;;7.09;100.00
65880;BME280;52661;51.364;6.054;2023-04-25T00:24:37;100689.53;;;7.08;100.00
65880;BME280;52661;51.364;6.054;2023-04-25T00:27:02;100684.91;;;7.08;100.00
65880;BME280;52661;51.364;6.054;2023-04-25T00:29:27;100687.22;;;7.10;100.00
65880;BME280;52661;51.364;6.054;2023-04-25T00:31:53;100690.25;;;7.05;100.00
65880;BME280;52661;51.364;6.054;2023-04-25T00:34:18;100694.75;;;6.97;100.00
65880;BME280;52661;51.364;6.054;2023-04-25T00:36:43;100693.97;;;6.97;100.00
65880;BME280;52661;51.364;6.054;2023-04-25T00:39:09;100692.47;;;6.99;100.00
65880;BME280;52661;51.364;6.054;2023-04-25T00:41:34;100675.53;;;7.02;100.00
65880;BME280;52661;51.364;6.054;2023-04-25T00:44:00;100688.72;;;7.07;100.00
65880;BME280;52661;51.364;6.054;2023-04-25T00:46:26;100681.00;;;7.06;100.00
65880;BME280;52661;51.364;6.054;2023-04-25T00:48:51;100683.03;;;7.12;100.00
65880;BME280;52661;51.364;6.054;2023-04-25T00:51:20;100682.19;;;7.08;100.00
65880;BME280;52661;51.364;6.054;2023-04-25T00:53:46;100682.59;;;7.10;100.00
65880;BME280;52661;51.364;6.054;2023-04-25T00:56:12;100688.28;;;7.02;100.00
65880;BME280;52661;51.364;6.054;2023-04-25T00:58:38;100692.47;;;6.99;100.00
65880;BME280;52661;51.364;6.054;2023-04-25T01:01:03;100690.94;;;6.98;100.00
65880;BME280;52661;51.364;6.054;2023-04-25T01:03:32;100694.88;;;7.04;100.00
65880;BME280;52661;51.364;6.054;2023-04-25T01:05:58;100695.59;;;7.01;100.00
65880;BME280;52661;51.364;6.054;2023-04-25T01:08:24;100686.25;;;6.95;100.00
65880;BME280;52661;51.364;6.054;2023-04-25T01:10:50;100693.72;;;7.05;100.00
65880;BME280;52661;51.364;6.054;2023-04-25T01:13:16;100694.03;;;7.00;100.00
65880;BME280;52661;51.364;6.054;2023-04-25T01:15:41;100691.69;;;6.99;100.00
65880;BME280;52661;51.364;6.054;2023-04-25T01:18:07;100689.72;;;6.96;100.00
65880;BME280;52661;51.364;6.054;2023-04-25T01:20:33;100690.09;;;6.94;100.00
65880;BME280;52661;51.364;6.054;2023-04-25T01:22:58;100691.91;;;6.86;100.00
65880;BME280;52661;51.364;6.054;2023-04-25T01:25:24;100688.78;;;6.84;100.00
65880;BME280;52661;51.364;6.054;2023-04-25T01:27:50;100686.16;;;6.88;100.00
65880;BME280;52661;51.364;6.054;2023-04-25T01:30:16;100693.50;;;6.91;100.00
65880;BME280;52661;51.364;6.054;2023-04-25T01:32:42;100683.44;;;6.88;100.00
65880;BME280;52661;51.364;6.054;2023-04-25T01:35:09;100695.03;;;6.88;100.00
65880;BME280;52661;51.364;6.054;2023-04-25T01:37:42;100700.31;;;6.81;100.00
65880;BME280;52661;51.364;6.054;2023-04-25T01:40:09;100697.94;;;6.76;100.00
65880;BME280;52661;51.364;6.054;2023-04-25T01:42:37;100695.25;;;6.76;100.00
65880;BME280;52661;51.364;6.054;2023-04-25T01:45:03;100691.03;;;6.79;100.00
65880;BME280;52661;51.364;6.054;2023-04-25T01:47:29;100699.13;;;6.79;100.00
65880;BME280;52661;51.364;6.054;2023-04-25T01:49:54;100701.09;;;6.82;100.00
65880;BME280;52661;51.364;6.054;2023-04-25T01:52:20;100703.38;;;6.80;100.00
65880;BME280;52661;51.364;6.054;2023-04-25T01:54:45;100702.16;;;6.77;100.00
65880;BME280;52661;51.364;6.054;2023-04-25T01:57:11;100698.69;;;6.77;100.00
65880;BME280;52661;51.364;6.054;2023-04-25T01:59:37;100704.47;;;6.75;100.00
65880;BME280;52661;51.364;6.054;2023-04-25T02:02:02;100711.72;;;6.71;100.00
65880;BME280;52661;51.364;6.054;2023-04-25T02:04:30;100706.63;;;6.66;100.00
65880;BME280;52661;51.364;6.054;2023-04-25T02:06:56;100709.75;;;6.68;100.00
65880;BME280;52661;51.364;6.054;2023-04-25T02:09:21;100712.75;;;6.63;100.00
65880;BME280;52661;51.364;6.054;2023-04-25T02:11:47;100716.63;;;6.66;100.00
65880;BME280;52661;51.364;6.054;2023-04-25T02:14:12;100717.47;;;6.70;100.00
65880;BME280;52661;51.364;6.054;2023-04-25T02:16:37;100717.84;;;6.68;100.00
65880;BME280;52661;51.364;6.054;2023-04-25T02:19:04;100721.56;;;6.60;100.00
65880;BME280;52661;51.364;6.054;2023-04-25T02:21:30;100718.81;;;6.57;100.00
65880;BME280;52661;51.364;6.054;2023-04-25T02:23:56;100713.41;;;6.57;100.00
65880;BME280;52661;51.364;6.054;2023-04-25T02:26:21;100714.44;;;6.49;100.00
65880;BME280;52661;51.364;6.054;2023-04-25T02:28:49;100717.84;;;6.46;100.00
65880;BME280;52661;51.364;6.054;2023-04-25T02:31:15;100721.28;;;6.42;100.00
65880;BME280;52661;51.364;6.054;2023-04-25T02:33:40;100717.13;;;6.49;100.00
65880;BME280;52661;51.364;6.054;2023-04-25T02:36:05;100727.50;;;6.47;100.00
65880;BME280;52661;51.364;6.054;2023-04-25T02:38:31;100731.03;;;6.51;100.00
65880;BME280;52661;51.364;6.054;2023-04-25T02:40:56;100730.56;;;6.45;100.00
65880;BME280;52661;51.364;6.054;2023-04-25T02:43:21;100729.00;;;6.44;100.00
65880;BME280;52661;51.364;6.054;2023-04-25T02:45:47;100728.22;;;6.43;100.00
65880;BME280;52661;51.364;6.054;2023-04-25T02:48:12;100730.16;;;6.43;100.00
65880;BME280;52661;51.364;6.054;2023-04-25T02:50:37;100731.09;;;6.31;100.00
65880;BME280;52661;51.364;6.054;2023-04-25T02:53:03;100727.28;;;6.32;100.00
65880;BME280;52661;51.364;6.054;2023-04-25T02:55:28;100734.31;;;6.40;100.00
65880;BME280;52661;51.364;6.054;2023-04-25T02:57:54;100725.09;;;6.41;100.00
65880;BME280;52661;51.364;6.054;2023-04-25T03:00:21;100731.28;;;6.42;100.00
65880;BME280;52661;51.364;6.054;2023-04-25T03:02:46;100728.56;;;6.42;100.00
65880;BME280;52661;51.364;6.054;2023-04-25T03:05:11;100734.97;;;6.34;100.00
65880;BME280;52661;51.364;6.054;2023-04-25T03:07:37;100726.78;;;6.27;100.00
65880;BME280;52661;51.364;6.054;2023-04-25T03:10:05;100720.31;;;6.31;100.00
65880;BME280;52661;51.364;6.054;2023-04-25T03:12:31;100722.88;;;6.24;100.00
65880;BME280;52661;51.364;6.054;2023-04-25T03:14:56;100717.31;;;6.14;100.00
65880;BME280;52661;51.364;6.054;2023-04-25T03:17:21;100727.72;;;6.15;100.00
65880;BME280;52661;51.364;6.054;2023-04-25T03:19:47;100722.38;;;6.19;100.00
65880;BME280;52661;51.364;6.054;2023-04-25T03:22:12;100721.63;;;6.18;100.00
65880;BME280;52661;51.364;6.054;2023-04-25T03:24:38;100718.22;;;6.21;100.00
65880;BME280;52661;51.364;6.054;2023-04-25T03:27:03;100722.75;;;6.17;100.00
65880;BME280;52661;51.364;6.054;2023-04-25T03:29:28;100731.25;;;6.19;100.00
65880;BME280;52661;51.364;6.054;2023-04-25T03:31:54;100731.13;;;6.12;100.00
65880;BME280;52661;51.364;6.054;2023-04-25T03:34:19;100730.00;;;6.13;100.00
65880;BME280;52661;51.364;6.054;2023-04-25T03:36:46;100730.84;;;6.17;100.00
65880;BME280;52661;51.364;6.054;2023-04-25T03:39:13;100732.41;;;6.18;100.00
65880;BME280;52661;51.364;6.054;2023-04-25T03:41:38;100732.22;;;6.08;100.00
65880;BME280;52661;51.364;6.054;2023-04-25T03:44:03;100741.22;;;5.96;100.00
65880;BME280;52661;51.364;6.054;2023-04-25T03:46:29;100744.50;;;5.86;100.00
65880;BME280;52661;51.364;6.054;2023-04-25T03:48:54;100743.88;;;5.92;100.00
65880;BME280;52661;51.364;6.054;2023-04-25T03:51:19;100752.22;;;5.87;100.00
65880;BME280;52661;51.364;6.054;2023-04-25T03:53:45;100749.78;;;5.82;100.00
65880;BME280;52661;51.364;6.054;2023-04-25T03:56:10;100748.81;;;5.90;100.00
65880;BME280;52661;51.364;6.054;2023-04-25T03:58:35;100756.31;;;6.01;100.00
65880;BME280;52661;51.364;6.054;2023-04-25T04:01:01;100757.47;;;6.00;100.00
65880;BME280;52661;51.364;6.054;2023-04-25T04:03:28;100758.25;;;6.00;100.00
65880;BME280;52661;51.364;6.054;2023-04-25T04:05:53;100754.84;;;6.03;100.00
65880;BME280;52661;51.364;6.054;2023-04-25T04:08:19;100754.47;;;5.85;100.00
65880;BME280;52661;51.364;6.054;2023-04-25T04:10:44;100755.84;;;5.95;100.00
65880;BME280;52661;51.364;6.054;2023-04-25T04:13:09;100767.66;;;5.90;100.00
65880;BME280;52661;51.364;6.054;2023-04-25T04:15:35;100764.91;;;5.87;100.00
65880;BME280;52661;51.364;6.054;2023-04-25T04:18:00;100763.91;;;5.95;100.00
65880;BME280;52661;51.364;6.054;2023-04-25T04:20:28;100760.16;;;6.00;100.00
65880;BME280;52661;51.364;6.054;2023-04-25T04:22:54;100759.56;;;6.10;100.00
65880;BME280;52661;51.364;6.054;2023-04-25T04:25:19;100763.78;;;6.07;100.00
65880;BME280;52661;51.364;6.054;2023-04-25T04:27:45;100761.84;;;6.08;100.00
65880;BME280;52661;51.364;6.054;2023-04-25T04:30:11;100770.13;;;6.18;100.00
65880;BME280;52661;51.364;6.054;2023-04-25T04:32:37;100763.34;;;6.05;100.00
65880;BME280;52661;51.364;6.054;2023-04-25T04:35:02;100776.16;;;6.12;100.00
65880;BME280;52661;51.364;6.054;2023-04-25T04:37:29;100773.84;;;6.10;100.00
65880;BME280;52661;51.364;6.054;2023-04-25T04:39:55;100770.06;;;6.15;100.00
65880;BME280;52661;51.364;6.054;2023-04-25T04:42:20;100775.03;;;6.13;100.00
65880;BME280;52661;51.364;6.054;2023-04-25T04:44:46;100778.78;;;6.08;100.00
65880;BME280;52661;51.364;6.054;2023-04-25T04:47:11;100776.31;;;6.00;100.00
65880;BME280;52661;51.364;6.054;2023-04-25T04:49:37;100776.81;;;6.05;100.00
65880;BME280;52661;51.364;6.054;2023-04-25T04:52:03;100783.56;;;6.15;100.00
65880;BME280;52661;51.364;6.054;2023-04-25T04:54:28;100786.00;;;6.23;100.00
65880;BME280;52661;51.364;6.054;2023-04-25T04:56:53;100793.09;;;6.31;100.00
65880;BME280;52661;51.364;6.054;2023-04-25T04:59:19;100791.19;;;6.32;100.00
65880;BME280;52661;51.364;6.054;2023-04-25T05:01:44;100798.03;;;6.29;100.00
65880;BME280;52661;51.364;6.054;2023-04-25T05:04:11;100795.94;;;6.19;100.00
65880;BME280;52661;51.364;6.054;2023-04-25T05:06:37;100805.31;;;6.25;100.00
65880;BME280;52661;51.364;6.054;2023-04-25T05:09:02;100805.00;;;6.30;100.00
65880;BME280;52661;51.364;6.054;2023-04-25T05:11:27;100804.28;;;6.33;100.00
65880;BME280;52661;51.364;6.054;2023-04-25T05:13:53;100805.25;;;6.44;100.00
65880;BME280;52661;51.364;6.054;2023-04-25T05:16:19;100814.44;;;6.40;100.00
65880;BME280;52661;51.364;6.054;2023-04-25T05:18:44;100811.75;;;6.40;100.00
65880;BME280;52661;51.364;6.054;2023-04-25T05:21:10;100823.59;;;6.35;100.00
65880;BME280;52661;51.364;6.054;2023-04-25T05:23:35;100829.25;;;6.30;100.00
65880;BME280;52661;51.364;6.054;2023-04-25T05:26:00;100833.53;;;6.31;100.00
65880;BME280;52661;51.364;6.054;2023-04-25T05:28:26;100838.19;;;6.34;100.00
65880;BME280;52661;51.364;6.054;2023-04-25T05:30:51;100837.78;;;6.32;100.00
65880;BME280;52661;51.364;6.054;2023-04-25T05:33:17;100838.56;;;6.33;100.00
65880;BME280;52661;51.364;6.054;2023-04-25T05:35:43;100844.44;;;6.38;100.00
65880;BME280;52661;51.364;6.054;2023-04-25T05:38:08;100848.00;;;6.23;100.00
65880;BME280;52661;51.364;6.054;2023-04-25T05:40:34;100850.84;;;6.11;100.00
65880;BME280;52661;51.364;6.054;2023-04-25T05:42:59;100854.59;;;6.07;100.00
65880;BME280;52661;51.364;6.054;2023-04-25T05:45:24;100854.81;;;6.17;100.00
65880;BME280;52661;51.364;6.054;2023-04-25T05:47:49;100859.75;;;6.15;100.00
65880;BME280;52661;51.364;6.054;2023-04-25T05:50:15;100860.63;;;6.19;100.00
65880;BME280;52661;51.364;6.054;2023-04-25T05:52:40;100860.13;;;6.33;100.00
65880;BME280;52661;51.364;6.054;2023-04-25T05:55:06;100859.41;;;6.36;100.00
65880;BME280;52661;51.364;6.054;2023-04-25T05:57:31;100862.19;;;6.39;100.00
65880;BME280;52661;51.364;6.054;2023-04-25T05:59:57;100859.91;;;6.41;100.00
65880;BME280;52661;51.364;6.054;2023-04-25T06:02:22;100867.41;;;6.52;100.00
65880;BME280;52661;51.364;6.054;2023-04-25T06:04:49;100866.63;;;6.51;100.00
65880;BME280;52661;51.364;6.054;2023-04-25T06:07:14;100862.56;;;6.61;100.00
65880;BME280;52661;51.364;6.054;2023-04-25T06:09:40;100867.59;;;6.62;100.00
65880;BME280;52661;51.364;6.054;2023-04-25T06:12:06;100874.63;;;6.67;100.00
65880;BME280;52661;51.364;6.054;2023-04-25T06:14:32;100881.94;;;6.66;100.00
65880;BME280;52661;51.364;6.054;2023-04-25T06:16:57;100889.53;;;6.80;100.00
65880;BME280;52661;51.364;6.054;2023-04-25T06:19:23;100883.59;;;6.93;100.00
65880;BME280;52661;51.364;6.054;2023-04-25T06:21:48;100884.25;;;6.87;100.00
65880;BME280;52661;51.364;6.054;2023-04-25T06:24:13;100885.50;;;6.93;100.00
65880;BME280;52661;51.364;6.054;2023-04-25T06:26:39;100889.53;;;6.80;100.00
65880;BME280;52661;51.364;6.054;2023-04-25T06:29:04;100900.06;;;6.88;100.00
65880;BME280;52661;51.364;6.054;2023-04-25T06:31:29;100892.69;;;6.85;100.00
65880;BME280;52661;51.364;6.054;2023-04-25T06:33:57;100890.91;;;6.93;100.00
65880;BME280;52661;51.364;6.054;2023-04-25T06:36:22;100891.69;;;6.93;100.00
65880;BME280;52661;51.364;6.054;2023-04-25T06:38:50;100892.03;;;6.92;100.00
65880;BME280;52661;51.364;6.054;2023-04-25T06:41:16;100898.09;;;6.85;100.00
65880;BME280;52661;51.364;6.054;2023-04-25T06:43:41;100897.03;;;6.90;100.00
65880;BME280;52661;51.364;6.054;2023-04-25T06:46:07;100906.25;;;6.89;100.00
65880;BME280;52661;51.364;6.054;2023-04-25T06:48:32;100904.69;;;6.88;100.00
65880;BME280;52661;51.364;6.054;2023-04-25T06:50:57;100912.91;;;6.95;100.00
65880;BME280;52661;51.364;6.054;2023-04-25T06:53:23;100907.03;;;6.89;100.00
65880;BME280;52661;51.364;6.054;2023-04-25T06:55:48;100909.78;;;6.93;100.00
65880;BME280;52661;51.364;6.054;2023-04-25T06:58:13;100915.31;;;7.00;100.00
65880;BME280;52661;51.364;6.054;2023-04-25T07:00:38;100908.66;;;6.94;100.00
65880;BME280;52661;51.364;6.054;2023-04-25T07:03:04;100915.38;;;7.04;100.00
65880;BME280;52661;51.364;6.054;2023-04-25T07:05:29;100918.59;;;7.13;100.00
65880;BME280;52661;51.364;6.054;2023-04-25T07:07:54;100916.63;;;7.10;100.00
65880;BME280;52661;51.364;6.054;2023-04-25T07:10:20;100925.69;;;7.21;100.00
65880;BME280;52661;51.364;6.054;2023-04-25T07:12:46;100926.34;;;7.14;100.00
65880;BME280;52661;51.364;6.054;2023-04-25T07:15:11;100927.53;;;7.17;100.00
65880;BME280;52661;51.364;6.054;2023-04-25T07:17:37;100922.81;;;7.10;100.00
65880;BME280;52661;51.364;6.054;2023-04-25T07:20:03;100923.16;;;7.31;100.00
65880;BME280;52661;51.364;6.054;2023-04-25T07:22:29;100926.41;;;7.40;100.00
65880;BME280;52661;51.364;6.054;2023-04-25T07:24:54;100932.28;;;7.46;100.00
65880;BME280;52661;51.364;6.054;2023-04-25T07:27:20;100930.75;;;7.45;100.00
65880;BME280;52661;51.364;6.054;2023-04-25T07:29:45;100931.59;;;7.53;100.00
65880;BME280;52661;51.364;6.054;2023-04-25T07:32:11;100936.03;;;7.64;100.00
65880;BME280;52661;51.364;6.054;2023-04-25T07:34:38;100944.69;;;7.73;100.00
65880;BME280;52661;51.364;6.054;2023-04-25T07:37:04;100952.13;;;7.80;100.00
65880;BME280;52661;51.364;6.054;2023-04-25T07:39:30;100947.94;;;7.86;100.00
65880;BME280;52661;51.364;6.054;2023-04-25T07:41:56;100957.50;;;7.80;100.00
65880;BME280;52661;51.364;6.054;2023-04-25T07:44:23;100957.09;;;7.78;100.00
65880;BME280;52661;51.364;6.054;2023-04-25T07:46:49;100953.75;;;7.62;100.00
65880;BME280;52661;51.364;6.054;2023-04-25T07:49:14;100955.38;;;7.66;100.00
65880;BME280;52661;51.364;6.054;2023-04-25T07:51:40;100958.78;;;7.63;100.00
65880;BME280;52661;51.364;6.054;2023-04-25T07:54:06;100966.19;;;7.66;100.00
65880;BME280;52661;51.364;6.054;2023-04-25T07:56:31;100961.19;;;7.68;100.00
65880;BME280;52661;51.364;6.054;2023-04-25T07:58:56;100967.66;;;7.64;100.00
65880;BME280;52661;51.364;6.054;2023-04-25T08:01:22;100963.06;;;7.64;100.00
65880;BME280;52661;51.364;6.054;2023-04-25T08:03:47;100967.09;;;7.74;100.00
65880;BME280;52661;51.364;6.054;2023-04-25T08:06:12;100978.06;;;7.84;100.00
65880;BME280;52661;51.364;6.054;2023-04-25T08:08:38;100983.50;;;7.88;100.00
65880;BME280;52661;51.364;6.054;2023-04-25T08:11:03;100989.84;;;7.99;100.00
65880;BME280;52661;51.364;6.054;2023-04-25T08:13:28;100994.03;;;7.97;100.00
65880;BME280;52661;51.364;6.054;2023-04-25T08:15:54;100995.63;;;7.98;100.00
65880;BME280;52661;51.364;6.054;2023-04-25T08:18:19;100990.88;;;8.17;100.00
65880;BME280;52661;51.364;6.054;2023-04-25T08:20:45;100999.09;;;8.24;100.00
65880;BME280;52661;51.364;6.054;2023-04-25T08:23:10;101006.06;;;8.25;100.00
65880;BME280;52661;51.364;6.054;2023-04-25T08:25:36;100996.66;;;8.42;100.00
65880;BME280;52661;51.364;6.054;2023-04-25T08:28:01;101000.06;;;8.35;100.00
65880;BME280;52661;51.364;6.054;2023-04-25T08:30:28;101007.97;;;8.25;100.00
65880;BME280;52661;51.364;6.054;2023-04-25T08:32:54;101010.94;;;8.39;100.00
65880;BME280;52661;51.364;6.054;2023-04-25T08:35:20;101015.50;;;8.65;100.00
65880;BME280;52661;51.364;6.054;2023-04-25T08:37:45;101020.75;;;8.54;100.00
65880;BME280;52661;51.364;6.054;2023-04-25T08:40:14;101029.97;;;8.46;100.00
65880;BME280;52661;51.364;6.054;2023-04-25T08:42:41;101028.44;;;8.49;100.00
65880;BME280;52661;51.364;6.054;2023-04-25T08:45:08;101033.84;;;8.49;100.00
65880;BME280;52661;51.364;6.054;2023-04-25T08:47:33;101037.00;;;8.28;99.28
65880;BME280;52661;51.364;6.054;2023-04-25T08:50:03;101042.31;;;8.21;100.00
65880;BME280;52661;51.364;6.054;2023-04-25T08:52:35;101034.16;;;8.44;100.00
65880;BME280;52661;51.364;6.054;2023-04-25T08:55:01;101044.63;;;8.45;100.00
65880;BME280;52661;51.364;6.054;2023-04-25T08:57:27;101044.09;;;8.36;100.00
65880;BME280;52661;51.364;6.054;2023-04-25T08:59:53;101044.13;;;8.39;100.00
65880;BME280;52661;51.364;6.054;2023-04-25T09:02:20;101047.38;;;8.49;96.76
65880;BME280;52661;51.364;6.054;2023-04-25T09:04:45;101046.13;;;8.43;97.72
65880;BME280;52661;51.364;6.054;2023-04-25T09:07:11;101048.16;;;8.49;98.01
65880;BME280;52661;51.364;6.054;2023-04-25T09:09:36;101049.63;;;8.47;97.31
65880;BME280;52661;51.364;6.054;2023-04-25T09:12:02;101053.19;;;8.51;98.70
65880;BME280;52661;51.364;6.054;2023-04-25T09:14:27;101058.13;;;8.45;92.41
65880;BME280;52661;51.364;6.054;2023-04-25T09:19:31;101071.22;;;8.43;96.90
65880;BME280;52661;51.364;6.054;2023-04-25T09:21:58;101078.09;;;8.37;97.21
65880;BME280;52661;51.364;6.054;2023-04-25T09:24:38;101076.44;;;8.29;97.10
65880;BME280;52661;51.364;6.054;2023-04-25T09:27:11;101089.09;;;8.25;100.00
65880;BME280;52661;51.364;6.054;2023-04-25T09:29:38;101099.75;;;8.14;100.00
65880;BME280;52661;51.364;6.054;2023-04-25T09:32:16;101098.72;;;8.22;100.00
65880;BME280;52661;51.364;6.054;2023-04-25T09:34:43;101105.09;;;8.33;100.00
65880;BME280;52661;51.364;6.054;2023-04-25T09:37:10;101098.50;;;8.31;100.00
65880;BME280;52661;51.364;6.054;2023-04-25T09:39:37;101103.69;;;8.43;99.50
65880;BME280;52661;51.364;6.054;2023-04-25T09:42:03;101106.03;;;8.71;98.85
65880;BME280;52661;51.364;6.054;2023-04-25T09:44:28;101106.44;;;8.73;95.64
65880;BME280;52661;51.364;6.054;2023-04-25T09:46:54;101105.72;;;8.76;96.15
65880;BME280;52661;51.364;6.054;2023-04-25T09:49:20;101116.97;;;8.78;95.44
65880;BME280;52661;51.364;6.054;2023-04-25T09:51:58;101113.53;;;8.81;93.54
65880;BME280;52661;51.364;6.054;2023-04-25T09:54:24;101122.53;;;8.88;94.88
65880;BME280;52661;51.364;6.054;2023-04-25T09:56:52;101115.88;;;8.82;93.20
65880;BME280;52661;51.364;6.054;2023-04-25T09:59:21;101116.00;;;8.93;94.28
65880;BME280;52661;51.364;6.054;2023-04-25T10:01:50;101115.41;;;9.07;96.03
65880;BME280;52661;51.364;6.054;2023-04-25T10:04:23;101119.91;;;8.96;90.12
65880;BME280;52661;51.364;6.054;2023-04-25T10:06:52;101117.38;;;8.80;90.25
65880;BME280;52661;51.364;6.054;2023-04-25T10:09:20;101128.84;;;9.00;89.34
65880;BME280;52661;51.364;6.054;2023-04-25T10:11:46;101116.28;;;9.14;93.54
65880;BME280;52661;51.364;6.054;2023-04-25T10:14:16;101128.66;;;9.15;90.12
65880;BME280;52661;51.364;6.054;2023-04-25T10:16:42;101124.31;;;9.07;85.47
65880;BME280;52661;51.364;6.054;2023-04-25T10:19:09;101112.63;;;9.00;84.51
65880;BME280;52661;51.364;6.054;2023-04-25T10:21:40;101117.41;;;9.13;87.75
65880;BME280;52661;51.364;6.054;2023-04-25T10:24:09;101123.34;;;9.22;87.83
65880;BME280;52661;51.364;6.054;2023-04-25T10:26:34;101136.34;;;9.10;83.31
65880;BME280;52661;51.364;6.054;2023-04-25T10:29:01;101134.75;;;9.09;83.51
65880;BME280;52661;51.364;6.054;2023-04-25T10:31:29;101129.94;;;8.95;88.67
65880;BME280;52661;51.364;6.054;2023-04-25T10:33:55;101138.53;;;8.71;93.10
65880;BME280;52661;51.364;6.054;2023-04-25T10:36:22;101154.34;;;8.43;99.58
65880;BME280;52661;51.364;6.054;2023-04-25T10:38:49;101158.69;;;8.05;100.00
65880;BME280;52661;51.364;6.054;2023-04-25T10:41:19;101171.00;;;7.61;100.00
65880;BME280;52661;51.364;6.054;2023-04-25T10:43:46;101166.53;;;7.49;100.00
65880;BME280;52661;51.364;6.054;2023-04-25T10:46:44;101176.63;;;7.33;100.00
65880;BME280;52661;51.364;6.054;2023-04-25T10:49:10;101178.28;;;6.83;100.00
65880;BME280;52661;51.364;6.054;2023-04-25T10:51:36;101169.31;;;6.79;100.00
65880;BME280;52661;51.364;6.054;2023-04-25T10:54:06;101171.88;;;6.91;100.00
65880;BME280;52661;51.364;6.054;2023-04-25T10:56:41;101170.63;;;7.05;100.00
65880;BME280;52661;51.364;6.054;2023-04-25T10:59:17;101167.72;;;7.13;100.00
65880;BME280;52661;51.364;6.054;2023-04-25T11:01:45;101172.72;;;7.30;100.00
65880;BME280;52661;51.364;6.054;2023-04-25T11:04:20;101177.69;;;7.67;100.00
65880;BME280;52661;51.364;6.054;2023-04-25T11:09:32;101159.09;;;8.07;100.00
65880;BME280;52661;51.364;6.054;2023-04-25T11:11:59;101149.63;;;8.17;100.00
65880;BME280;52661;51.364;6.054;2023-04-25T11:14:25;101159.84;;;8.27;100.00
65880;BME280;52661;51.364;6.054;2023-04-25T11:16:54;101160.13;;;8.22;100.00
65880;BME280;52661;51.364;6.054;2023-04-25T11:19:24;101158.28;;;8.49;100.00
65880;BME280;52661;51.364;6.054;2023-04-25T11:21:50;101155.06;;;8.66;100.00
65880;BME280;52661;51.364;6.054;2023-04-25T11:24:16;101150.56;;;9.03;100.00
65880;BME280;52661;51.364;6.054;2023-04-25T11:26:43;101149.25;;;9.23;100.00
65880;BME280;52661;51.364;6.054;2023-04-25T11:29:09;101154.28;;;9.21;95.58
65880;BME280;52661;51.364;6.054;2023-04-25T11:31:34;101147.38;;;9.27;94.61
65880;BME280;52661;51.364;6.054;2023-04-25T11:33:59;101148.28;;;9.38;90.83
65880;BME280;52661;51.364;6.054;2023-04-25T11:36:25;101155.59;;;9.34;87.95
65880;BME280;52661;51.364;6.054;2023-04-25T11:38:52;101149.13;;;9.43;91.58
65880;BME280;52661;51.364;6.054;2023-04-25T11:41:18;101149.16;;;9.46;77.31
65880;BME280;52661;51.364;6.054;2023-04-25T11:43:44;101154.91;;;9.78;84.88
65880;BME280;52661;51.364;6.054;2023-04-25T11:46:10;101158.81;;;9.80;75.51
65880;BME280;52661;51.364;6.054;2023-04-25T11:48:40;101151.78;;;10.13;88.00
65880;BME280;52661;51.364;6.054;2023-04-25T11:51:06;101160.94;;;10.38;86.27
65880;BME280;52661;51.364;6.054;2023-04-25T11:53:32;101162.31;;;10.21;74.31
65880;BME280;52661;51.364;6.054;2023-04-25T11:55:57;101157.81;;;10.40;81.60
65880;BME280;52661;51.364;6.054;2023-04-25T11:58:23;101166.44;;;10.49;83.94
65880;BME280;52661;51.364;6.054;2023-04-25T12:00:48;101161.72;;;10.42;79.18
65880;BME280;52661;51.364;6.054;2023-04-25T12:03:13;101160.84;;;10.31;79.09
65880;BME280;52661;51.364;6.054;2023-04-25T12:05:39;101165.38;;;10.67;86.77
65880;BME280;52661;51.364;6.054;2023-04-25T12:08:12;101167.63;;;10.51;79.68
65880;BME280;52661;51.364;6.054;2023-04-25T12:10:39;101170.53;;;9.92;94.38
65880;BME280;52661;51.364;6.054;2023-04-25T12:13:37;101171.03;;;9.30;100.00
65880;BME280;52661;51.364;6.054;2023-04-25T12:16:03;101183.00;;;9.00;100.00
65880;BME280;52661;51.364;6.054;2023-04-25T12:18:28;101192.66;;;8.71;100.00
65880;BME280;52661;51.364;6.054;2023-04-25T12:20:54;101192.72;;;8.52;100.00
65880;BME280;52661;51.364;6.054;2023-04-25T12:23:27;101206.84;;;8.42;100.00
65880;BME280;52661;51.364;6.054;2023-04-25T12:25:53;101198.91;;;8.29;100.00
65880;BME280;52661;51.364;6.054;2023-04-25T12:28:20;101209.97;;;8.21;100.00
65880;BME280;52661;51.364;6.054;2023-04-25T12:33:26;101213.34;;;8.18;100.00
65880;BME280;52661;51.364;6.054;2023-04-25T12:35:55;101204.19;;;8.22;100.00
65880;BME280;52661;51.364;6.054;2023-04-25T12:38:31;101214.84;;;8.34;100.00
65880;BME280;52661;51.364;6.054;2023-04-25T12:40:59;101213.91;;;8.27;100.00
65880;BME280;52661;51.364;6.054;2023-04-25T12:43:25;101215.25;;;8.36;100.00
65880;BME280;52661;51.364;6.054;2023-04-25T12:45:51;101221.16;;;8.42;100.00
65880;BME280;52661;51.364;6.054;2023-04-25T12:48:17;101218.75;;;8.60;100.00
65880;BME280;52661;51.364;6.054;2023-04-25T12:50:43;101220.94;;;8.77;100.00
65880;BME280;52661;51.364;6.054;2023-04-25T12:53:09;101209.50;;;8.87;100.00